METAR Data
IDs: Format: Raw Decoded Include TAF

Data at: 2159 UTC 15 Oct 2018

METAR for:KAUS (Austin/Bergstrom Int, TX, US)
Text:KAUS 152153Z 36019G30KT 3SM OVC016 09/07 A3014 RMK AO2 PK WND 01030/2150 SFC VIS 10 RAE51 SLP208 P0001 T00890067
Temperature: 8.9°C ( 48°F)
Dewpoint: 6.7°C ( 44°F) [RH = 86%]
Pressure (altimeter):30.14 inches Hg (1020.7 mb) [Sea level pressure: 1020.8 mb]
Winds:from the N (360 degrees) at 22 MPH (19 knots; 9.8 m/s) gusting to 34 MPH (30 knots; 15.4 m/s)
Visibility: 3 sm ( 5 km)
Ceiling:1600 feet AGL
Clouds: overcast cloud deck at 1600 feet AGL